Halbert, Indiana
Current Conditions -  °F | °C
As of 10:55 PM on Thursday 30 Oct 2014 (Local Time) from KDCY Reporting Station
Drizzle Drizzle  
Wind Chill: 45°   Ceiling: 4900
Heat Index: 47°   Visibility: 10mi
Dew Point: 44°   Wind: 6mph
Humidity: 90%   Direction: 30°NNE
Pressure: 30.06"   Gusts: NA
Location:  38.6262°N, 86.7615°W
Report Text: KDCY 310355Z AUTO 03005KT 10SM -DZ OVC049 09/07 A3006 RMK AO2 T00850069
Loading
Personal Weather Stations






























Interactive Weather Map
Tropical Storm Tracking
New forecast layout! Learn more

10-Day Weather Forecast

Advertisements
Track Severe Weather on mobile